createdAt,value
2023-02-08T00:00:55.076Z,54.44
2023-02-08T00:03:22.180Z,54.40
2023-02-08T00:05:49.516Z,54.49
2023-02-08T00:08:16.555Z,54.48
2023-02-08T00:10:44.008Z,54.74
2023-02-08T00:13:11.036Z,54.68
2023-02-08T00:15:43.639Z,54.98
2023-02-08T00:18:10.592Z,55.22
2023-02-08T00:20:42.786Z,55.00
2023-02-08T00:23:10.588Z,55.07
2023-02-08T00:25:38.285Z,54.92
2023-02-08T00:28:09.090Z,55.06
2023-02-08T00:30:36.255Z,54.93
2023-02-08T00:33:03.674Z,55.10
2023-02-08T00:35:31.248Z,55.29
2023-02-08T00:37:58.141Z,55.33
2023-02-08T00:40:25.622Z,55.56
2023-02-08T00:42:52.567Z,55.48
2023-02-08T00:45:20.793Z,55.39
2023-02-08T00:47:47.734Z,55.70
2023-02-08T00:50:14.853Z,55.81
2023-02-08T00:52:41.794Z,55.89
2023-02-08T00:55:09.074Z,55.87
2023-02-08T00:57:36.190Z,55.99
2023-02-08T01:00:05.276Z,56.38
2023-02-08T01:02:32.366Z,56.41
2023-02-08T01:04:59.171Z,56.81
2023-02-08T01:07:26.001Z,56.26
2023-02-08T01:09:52.807Z,56.57
2023-02-08T01:12:19.666Z,56.19
2023-02-08T01:14:46.671Z,56.58
2023-02-08T01:17:13.451Z,56.96
2023-02-08T01:19:42.414Z,57.18
2023-02-08T01:22:09.410Z,57.15
2023-02-08T01:24:36.290Z,57.63
2023-02-08T01:27:03.141Z,57.62
2023-02-08T01:29:29.981Z,58.24
2023-02-08T01:31:56.819Z,58.14
2023-02-08T01:34:23.637Z,58.00
2023-02-08T01:36:50.545Z,57.85
2023-02-08T01:39:17.368Z,58.20
2023-02-08T01:41:46.616Z,58.10
2023-02-08T01:44:13.543Z,58.14
2023-02-08T01:46:51.014Z,58.12
2023-02-08T01:49:33.896Z,57.98
2023-02-08T01:52:16.407Z,58.06
2023-02-08T01:55:00.431Z,57.74
2023-02-08T01:57:28.463Z,58.03
2023-02-08T02:00:04.485Z,58.06
2023-02-08T02:02:31.471Z,58.34
2023-02-08T02:04:58.388Z,58.29
2023-02-08T02:07:29.754Z,58.30
2023-02-08T02:10:04.199Z,58.26
2023-02-08T02:12:33.171Z,58.22
2023-02-08T02:15:01.867Z,58.18
2023-02-08T02:17:28.744Z,58.10
2023-02-08T02:20:11.571Z,58.02
2023-02-08T02:23:38.114Z,57.95
2023-02-08T02:26:41.325Z,58.07
2023-02-08T02:29:30.030Z,57.88
2023-02-08T02:32:23.444Z,58.38
2023-02-08T02:35:21.516Z,58.28
2023-02-08T02:38:14.833Z,58.50
2023-02-08T02:41:51.300Z,58.22
2023-02-08T02:44:32.186Z,58.68
2023-02-08T02:47:12.446Z,58.80
2023-02-08T02:50:04.496Z,59.30
2023-02-08T02:52:48.190Z,58.85
2023-02-08T02:55:21.091Z,59.06
2023-02-08T02:57:51.767Z,59.01
2023-02-08T03:00:24.304Z,58.85
2023-02-08T03:02:51.682Z,59.14
2023-02-08T03:05:18.617Z,58.85
2023-02-08T03:08:18.511Z,59.12
2023-02-08T03:11:24.382Z,59.01
2023-02-08T03:13:57.052Z,58.96
2023-02-08T03:16:42.643Z,59.28
2023-02-08T03:19:35.346Z,59.38
2023-02-08T03:22:22.009Z,59.87
2023-02-08T03:25:03.208Z,59.63
2023-02-08T03:28:21.780Z,59.62
2023-02-08T03:31:17.865Z,59.76
2023-02-08T03:33:58.464Z,60.06
2023-02-08T03:36:40.064Z,60.20
2023-02-08T03:39:14.033Z,60.15
2023-02-08T03:41:44.800Z,59.88
2023-02-08T03:44:20.630Z,60.08
2023-02-08T03:46:55.382Z,60.10
2023-02-08T03:49:35.297Z,60.03
2023-02-08T03:52:07.704Z,60.60
2023-02-08T03:54:44.179Z,60.42
2023-02-08T03:57:25.088Z,60.28
2023-02-08T04:00:00.108Z,60.27
2023-02-08T04:02:30.511Z,59.80
2023-02-08T04:04:58.838Z,60.33
2023-02-08T04:07:25.933Z,59.83
2023-02-08T04:09:52.860Z,59.53
2023-02-08T04:12:19.861Z,59.93
2023-02-08T04:14:46.811Z,59.88
2023-02-08T04:17:13.630Z,60.43
2023-02-08T04:19:40.590Z,60.41
2023-02-08T04:22:07.488Z,60.67
2023-02-08T04:24:34.295Z,60.56
2023-02-08T04:27:01.168Z,60.32
2023-02-08T04:29:28.229Z,60.02
2023-02-08T04:31:55.130Z,60.39
2023-02-08T04:34:22.044Z,60.31
2023-02-08T04:36:48.888Z,60.44
2023-02-08T04:39:15.702Z,60.60
2023-02-08T04:41:42.600Z,60.61
2023-02-08T04:44:09.460Z,60.77
2023-02-08T04:46:36.351Z,60.93
2023-02-08T04:49:03.228Z,60.39
2023-02-08T04:51:30.050Z,60.65
2023-02-08T04:53:56.899Z,60.46
2023-02-08T04:56:23.688Z,60.62
2023-02-08T04:58:50.479Z,60.23
2023-02-08T05:01:17.448Z,59.70
2023-02-08T05:03:44.363Z,60.36
2023-02-08T05:06:11.260Z,60.41
2023-02-08T05:08:38.128Z,59.98
2023-02-08T05:11:05.155Z,60.31
2023-02-08T05:13:32.250Z,60.14
2023-02-08T05:15:59.146Z,60.31
2023-02-08T05:18:26.213Z,60.06
2023-02-08T05:20:58.322Z,60.38
2023-02-08T05:23:26.779Z,60.19
2023-02-08T05:25:54.068Z,60.35
2023-02-08T05:28:21.931Z,60.67
2023-02-08T05:30:49.199Z,60.62
2023-02-08T05:33:16.502Z,60.71
2023-02-08T05:35:45.691Z,60.35
2023-02-08T05:38:12.569Z,60.66
2023-02-08T05:40:39.646Z,60.93
2023-02-08T05:43:06.997Z,61.00
2023-02-08T05:45:33.847Z,60.76
2023-02-08T05:48:00.699Z,60.59
2023-02-08T05:50:27.734Z,60.47
2023-02-08T05:52:54.584Z,60.47
2023-02-08T05:55:21.399Z,60.52
2023-02-08T05:57:48.210Z,60.55
2023-02-08T06:00:15.838Z,60.39
2023-02-08T06:02:42.765Z,60.66
2023-02-08T06:05:09.550Z,60.68
2023-02-08T06:07:36.416Z,60.89
2023-02-08T06:10:04.278Z,61.03
2023-02-08T06:12:31.112Z,61.43
2023-02-08T06:14:57.890Z,61.07
2023-02-08T06:17:24.772Z,61.54
2023-02-08T06:19:51.596Z,61.29
2023-02-08T06:22:18.456Z,61.32
2023-02-08T06:24:45.453Z,61.15
2023-02-08T06:27:12.405Z,61.20
2023-02-08T06:29:39.195Z,61.45
2023-02-08T06:32:06.170Z,61.23
2023-02-08T06:34:33.080Z,61.70
2023-02-08T06:37:02.142Z,61.75
2023-02-08T06:39:29.697Z,61.42
2023-02-08T06:41:56.621Z,61.31
2023-02-08T06:44:24.061Z,61.43
2023-02-08T06:46:51.632Z,61.39
2023-02-08T06:49:18.536Z,61.14
2023-02-08T06:51:45.527Z,60.95
2023-02-08T06:54:12.415Z,60.80
2023-02-08T06:56:39.315Z,61.04
2023-02-08T06:59:06.145Z,60.54
2023-02-08T07:01:33.355Z,60.31
2023-02-08T07:04:00.331Z,59.74
2023-02-08T07:06:27.174Z,59.58
2023-02-08T07:08:54.020Z,59.25
2023-02-08T07:11:22.247Z,58.80
2023-02-08T07:13:51.280Z,58.26
2023-02-08T07:16:19.730Z,58.11
2023-02-08T07:18:47.345Z,57.74
2023-02-08T07:21:14.252Z,57.50
2023-02-08T07:23:41.706Z,57.15
2023-02-08T07:26:14.376Z,57.22
2023-02-08T07:28:42.001Z,56.76
2023-02-08T07:31:14.198Z,56.13
2023-02-08T07:33:41.944Z,55.65
2023-02-08T07:36:10.730Z,54.61
2023-02-08T07:38:38.418Z,54.61
2023-02-08T07:41:09.266Z,54.14
2023-02-08T07:43:38.636Z,54.00
2023-02-08T07:46:08.324Z,53.70
2023-02-08T07:48:35.955Z,53.28
2023-02-08T07:51:03.235Z,52.99
2023-02-08T07:53:30.736Z,52.88
2023-02-08T07:55:58.500Z,52.94
2023-02-08T07:58:26.651Z,52.46
2023-02-08T08:00:53.680Z,52.09
2023-02-08T08:03:21.153Z,52.48
2023-02-08T08:05:52.048Z,53.11
2023-02-08T08:08:20.103Z,53.11
2023-02-08T08:10:47.138Z,51.98
2023-02-08T08:13:14.355Z,51.64
2023-02-08T08:15:41.661Z,51.26
2023-02-08T08:18:08.724Z,51.80
2023-02-08T08:20:35.981Z,50.47
2023-02-08T08:23:02.838Z,50.02
2023-02-08T08:25:29.783Z,49.14
2023-02-08T08:27:56.735Z,49.23
2023-02-08T08:30:23.895Z,48.26
2023-02-08T08:32:50.784Z,48.71
2023-02-08T08:35:17.824Z,48.49
2023-02-08T08:37:44.703Z,48.45
2023-02-08T08:40:12.177Z,47.80
2023-02-08T08:42:41.604Z,47.93
2023-02-08T08:45:09.781Z,47.92
2023-02-08T08:47:36.664Z,47.56
2023-02-08T08:50:03.890Z,46.49
2023-02-08T08:52:30.715Z,47.06
2023-02-08T08:54:57.534Z,45.78
2023-02-08T08:57:24.374Z,45.26
2023-02-08T08:59:51.446Z,45.14
2023-02-08T09:02:18.273Z,44.48
2023-02-08T09:04:45.329Z,44.11
2023-02-08T09:07:12.238Z,43.97
2023-02-08T09:09:39.189Z,43.38
2023-02-08T09:12:06.341Z,41.68
2023-02-08T09:14:33.636Z,42.84
2023-02-08T09:17:00.552Z,41.47
2023-02-08T09:19:27.934Z,39.84
2023-02-08T09:21:55.446Z,38.94
2023-02-08T09:24:22.328Z,38.99
2023-02-08T09:26:49.230Z,40.51
2023-02-08T09:29:16.054Z,41.84
2023-02-08T09:31:43.152Z,42.67
2023-02-08T09:34:10.220Z,42.85
2023-02-08T09:36:40.142Z,42.80
2023-02-08T09:39:15.834Z,42.51
2023-02-08T09:42:13.689Z,41.63
2023-02-08T09:44:57.922Z,41.46
2023-02-08T09:47:43.295Z,41.12
2023-02-08T09:50:16.770Z,41.76
2023-02-08T09:52:59.514Z,42.33
2023-02-08T09:55:49.918Z,41.78
2023-02-08T09:58:32.862Z,42.67
2023-02-08T10:01:00.754Z,43.31
2023-02-08T10:03:42.451Z,43.10
2023-02-08T10:06:16.713Z,42.73
2023-02-08T10:08:46.416Z,41.85
2023-02-08T10:11:51.712Z,40.64
2023-02-08T10:14:54.561Z,40.13
2023-02-08T10:18:02.104Z,40.18
2023-02-08T10:21:19.956Z,39.20
2023-02-08T10:24:23.690Z,38.59
2023-02-08T10:27:08.508Z,39.47
2023-02-08T10:29:59.812Z,38.21
2023-02-08T10:32:49.319Z,38.60
2023-02-08T10:35:39.180Z,38.90
2023-02-08T10:38:44.238Z,37.34
2023-02-08T10:41:20.459Z,37.25
2023-02-08T10:44:01.342Z,36.41
2023-02-08T10:46:43.697Z,36.68
2023-02-08T10:49:35.384Z,37.51
2023-02-08T10:52:02.649Z,36.75
2023-02-08T10:54:29.551Z,37.70
2023-02-08T10:57:03.041Z,38.06
2023-02-08T10:59:57.522Z,38.34
2023-02-08T11:02:28.864Z,38.32
2023-02-08T11:05:07.996Z,36.52
2023-02-08T11:07:36.674Z,35.89
2023-02-08T11:10:19.019Z,36.02
2023-02-08T11:13:23.528Z,37.46
2023-02-08T11:15:56.625Z,37.74
2023-02-08T11:18:41.399Z,38.60
2023-02-08T11:21:21.772Z,37.70
2023-02-08T11:23:53.192Z,36.64
2023-02-08T11:26:36.810Z,36.09
2023-02-08T11:29:16.015Z,35.40
2023-02-08T11:32:17.466Z,36.31
2023-02-08T11:34:44.551Z,36.60
2023-02-08T11:37:28.436Z,36.25
2023-02-08T11:39:58.494Z,36.83
2023-02-08T11:42:30.196Z,36.01
2023-02-08T11:44:59.736Z,35.53
2023-02-08T11:47:32.533Z,35.98
2023-02-08T11:50:06.274Z,35.64
2023-02-08T11:52:39.317Z,35.94
2023-02-08T11:55:28.784Z,36.32
2023-02-08T11:58:20.531Z,36.61
2023-02-08T12:00:59.094Z,37.12
2023-02-08T12:03:33.717Z,36.64
2023-02-08T12:06:08.412Z,34.25
2023-02-08T12:09:11.556Z,32.67
2023-02-08T12:11:45.833Z,32.33
2023-02-08T12:14:44.864Z,30.12
2023-02-08T12:18:09.021Z,29.04
2023-02-08T12:20:45.327Z,28.56
2023-02-08T12:23:42.856Z,28.99
2023-02-08T12:26:49.223Z,30.02
2023-02-08T12:29:53.756Z,28.46
2023-02-08T12:32:35.215Z,26.97
2023-02-08T12:36:32.505Z,27.09
2023-02-08T12:39:39.423Z,28.13
2023-02-08T12:42:23.205Z,28.31
2023-02-08T12:45:32.604Z,28.12
2023-02-08T12:48:08.617Z,29.71
2023-02-08T12:50:57.226Z,29.71
2023-02-08T12:54:00.760Z,31.48
2023-02-08T12:56:36.168Z,30.22
2023-02-08T12:59:13.610Z,29.04
2023-02-08T13:01:51.215Z,28.14
2023-02-08T13:04:27.990Z,28.49
2023-02-08T13:07:03.088Z,27.26
2023-02-08T13:09:34.441Z,25.86
2023-02-08T13:12:30.679Z,26.33
2023-02-08T13:15:30.637Z,27.60
2023-02-08T13:18:30.300Z,28.75
2023-02-08T13:21:15.005Z,31.36
2023-02-08T13:23:52.484Z,29.65
2023-02-08T13:26:27.723Z,29.50
2023-02-08T13:29:01.091Z,29.12
2023-02-08T13:31:41.368Z,27.00
2023-02-08T13:34:34.850Z,28.02
2023-02-08T13:37:16.665Z,26.05
2023-02-08T13:39:59.547Z,26.70
2023-02-08T13:43:00.402Z,24.84
2023-02-08T13:45:38.258Z,24.38
2023-02-08T13:48:08.438Z,24.83
2023-02-08T13:50:35.166Z,25.53
2023-02-08T13:53:03.441Z,25.86
2023-02-08T13:55:36.029Z,25.95
2023-02-08T13:58:48.593Z,26.48
2023-02-08T14:01:23.040Z,25.73
2023-02-08T14:04:08.186Z,25.05
2023-02-08T14:06:46.433Z,25.81
2023-02-08T14:09:39.593Z,24.65
2023-02-08T14:12:31.785Z,24.61
2023-02-08T14:15:15.214Z,23.78
2023-02-08T14:17:45.434Z,24.66
2023-02-08T14:20:21.898Z,25.40
2023-02-08T14:23:03.228Z,25.19
2023-02-08T14:25:43.058Z,25.67
2023-02-08T14:28:45.978Z,25.46
2023-02-08T14:31:15.644Z,24.96
2023-02-08T14:33:53.325Z,23.96
2023-02-08T14:36:32.102Z,23.80
2023-02-08T14:39:29.124Z,23.00
2023-02-08T14:42:08.831Z,24.82
2023-02-08T14:44:38.836Z,25.20
2023-02-08T14:47:36.848Z,26.80
2023-02-08T14:50:29.086Z,26.67
2023-02-08T14:53:13.109Z,28.30
2023-02-08T14:55:56.919Z,28.17
2023-02-08T14:58:38.150Z,27.05
2023-02-08T15:01:31.924Z,27.05
2023-02-08T15:04:02.246Z,26.63
2023-02-08T15:06:38.415Z,25.78
2023-02-08T15:09:19.287Z,25.90
2023-02-08T15:12:14.308Z,25.26
2023-02-08T15:14:42.918Z,25.47
2023-02-08T15:17:41.483Z,26.47
2023-02-08T15:20:28.447Z,27.69
2023-02-08T15:23:20.827Z,27.57
2023-02-08T15:26:04.645Z,27.37
2023-02-08T15:28:36.299Z,28.02
2023-02-08T15:31:11.852Z,29.33
2023-02-08T15:33:40.523Z,30.53
2023-02-08T15:36:33.743Z,34.71
2023-02-08T15:39:10.198Z,37.08
2023-02-08T15:41:38.143Z,38.56
2023-02-08T15:44:21.082Z,39.68
2023-02-08T15:46:49.463Z,40.23
2023-02-08T15:49:23.122Z,41.53
2023-02-08T15:51:50.971Z,41.82
2023-02-08T15:54:19.260Z,42.05
2023-02-08T15:57:28.195Z,42.44
2023-02-08T15:59:55.605Z,43.59
2023-02-08T16:02:35.397Z,43.71
2023-02-08T16:05:16.178Z,43.74
2023-02-08T16:07:47.289Z,44.03
2023-02-08T16:10:30.673Z,43.74
2023-02-08T16:13:01.787Z,44.08
2023-02-08T16:15:50.517Z,44.44
2023-02-08T16:18:41.784Z,44.32
2023-02-08T16:21:40.206Z,44.99
2023-02-08T16:24:12.890Z,44.52
2023-02-08T16:26:45.531Z,44.96
2023-02-08T16:29:29.890Z,45.08
2023-02-08T16:32:29.415Z,45.53
2023-02-08T16:34:57.032Z,45.19
2023-02-08T16:37:27.458Z,44.88
2023-02-08T16:40:02.403Z,45.17
2023-02-08T16:42:40.258Z,45.01
2023-02-08T16:45:22.599Z,45.42
2023-02-08T16:48:01.926Z,45.40
2023-02-08T16:50:33.813Z,45.22
2023-02-08T16:53:03.563Z,45.05
2023-02-08T16:55:32.986Z,45.22
2023-02-08T16:58:00.371Z,45.56
2023-02-08T17:00:34.340Z,45.04
2023-02-08T17:03:01.950Z,45.58
2023-02-08T17:05:38.448Z,45.75
2023-02-08T17:08:09.871Z,45.57
2023-02-08T17:10:37.149Z,46.37
2023-02-08T17:13:19.449Z,45.93
2023-02-08T17:15:49.389Z,45.84
2023-02-08T17:18:16.480Z,46.33
2023-02-08T17:20:44.356Z,46.10
2023-02-08T17:23:11.788Z,46.71
2023-02-08T17:25:38.831Z,46.75
2023-02-08T17:28:18.246Z,46.54
2023-02-08T17:30:47.158Z,46.37
2023-02-08T17:33:20.366Z,46.33
2023-02-08T17:35:52.018Z,46.78
2023-02-08T17:38:20.456Z,47.39
2023-02-08T17:40:48.575Z,46.97
2023-02-08T17:43:15.852Z,47.18
2023-02-08T17:45:44.173Z,46.97
2023-02-08T17:48:13.483Z,46.80
2023-02-08T17:50:43.990Z,46.91
2023-02-08T17:53:12.203Z,47.50
2023-02-08T17:55:42.757Z,47.12
2023-02-08T17:58:09.835Z,46.94
2023-02-08T18:00:37.020Z,46.95
2023-02-08T18:03:03.954Z,47.10
2023-02-08T18:05:31.194Z,47.44
2023-02-08T18:07:58.026Z,47.35
2023-02-08T18:10:25.913Z,48.14
2023-02-08T18:12:52.822Z,48.09
2023-02-08T18:15:22.316Z,47.94
2023-02-08T18:17:50.475Z,47.80
2023-02-08T18:20:18.261Z,47.83
2023-02-08T18:22:45.799Z,48.55
2023-02-08T18:25:14.454Z,48.80
2023-02-08T18:27:41.652Z,48.99
2023-02-08T18:30:11.328Z,49.18
2023-02-08T18:32:38.667Z,49.20
2023-02-08T18:35:07.368Z,49.02
2023-02-08T18:37:36.663Z,49.41
2023-02-08T18:40:06.754Z,48.80
2023-02-08T18:42:35.874Z,48.84
2023-02-08T18:45:04.762Z,49.06
2023-02-08T18:47:31.553Z,49.17
2023-02-08T18:49:58.465Z,49.24
2023-02-08T18:52:25.384Z,49.20
2023-02-08T18:54:52.322Z,49.83
2023-02-08T18:57:19.844Z,49.93
2023-02-08T18:59:46.796Z,49.94
2023-02-08T19:02:22.190Z,50.02
2023-02-08T19:04:49.281Z,49.78
2023-02-08T19:07:16.277Z,50.10
2023-02-08T19:09:43.969Z,50.17
2023-02-08T19:12:15.111Z,50.22
2023-02-08T19:14:43.190Z,50.15
2023-02-08T19:17:10.765Z,50.36
2023-02-08T19:19:38.672Z,50.82
2023-02-08T19:22:05.448Z,51.16
2023-02-08T19:24:32.328Z,50.69
2023-02-08T19:26:59.155Z,50.53
2023-02-08T19:29:26.010Z,50.71
2023-02-08T19:31:52.981Z,50.59
2023-02-08T19:34:20.019Z,50.97
2023-02-08T19:36:51.705Z,50.75
2023-02-08T19:39:23.940Z,51.34
2023-02-08T19:41:52.795Z,51.04
2023-02-08T19:44:21.053Z,51.66
2023-02-08T19:46:54.274Z,51.43
2023-02-08T19:49:23.687Z,51.19
2023-02-08T19:51:50.552Z,51.41
2023-02-08T19:54:19.316Z,51.29
2023-02-08T19:56:47.145Z,51.67
2023-02-08T19:59:22.071Z,51.85
2023-02-08T20:01:49.489Z,52.07
2023-02-08T20:04:16.408Z,51.90
2023-02-08T20:06:45.023Z,52.21
2023-02-08T20:09:13.261Z,52.17
2023-02-08T20:11:55.829Z,52.08
2023-02-08T20:14:24.540Z,52.50
2023-02-08T20:16:51.449Z,52.74
2023-02-08T20:19:18.420Z,52.71
2023-02-08T20:21:45.555Z,52.64
2023-02-08T20:24:13.038Z,52.67
2023-02-08T20:26:43.122Z,52.65
2023-02-08T20:29:11.389Z,53.16
2023-02-08T20:31:42.554Z,52.77
2023-02-08T20:34:13.386Z,53.07
2023-02-08T20:36:45.021Z,53.03
2023-02-08T20:39:18.824Z,53.32
2023-02-08T20:41:47.345Z,53.08
2023-02-08T20:44:17.251Z,53.13
2023-02-08T20:46:44.546Z,52.66
2023-02-08T20:49:15.129Z,53.33
2023-02-08T20:51:43.215Z,53.05
2023-02-08T20:54:10.597Z,53.36
2023-02-08T20:56:38.638Z,53.20
2023-02-08T20:59:09.162Z,53.03
2023-02-08T21:01:36.810Z,53.20
2023-02-08T21:04:05.103Z,52.97
2023-02-08T21:06:36.471Z,52.89
2023-02-08T21:09:09.770Z,52.89
2023-02-08T21:11:36.660Z,53.21
2023-02-08T21:14:05.182Z,52.58
2023-02-08T21:16:33.142Z,52.61
2023-02-08T21:19:00.635Z,52.63
2023-02-08T21:21:28.493Z,53.60
2023-02-08T21:23:57.851Z,53.02
2023-02-08T21:26:25.955Z,53.04
2023-02-08T21:28:55.280Z,53.30
2023-02-08T21:31:24.437Z,53.52
2023-02-08T21:33:52.412Z,53.81
2023-02-08T21:36:23.178Z,54.04
2023-02-08T21:38:50.708Z,53.97
2023-02-08T21:41:24.843Z,54.15
2023-02-08T21:43:55.629Z,53.92
2023-02-08T21:46:24.671Z,53.83
2023-02-08T21:49:10.537Z,53.83
2023-02-08T21:51:56.190Z,54.51
2023-02-08T21:54:42.523Z,54.62
2023-02-08T21:57:18.787Z,54.53
2023-02-08T21:59:48.713Z,54.67
2023-02-08T22:02:25.798Z,54.60
2023-02-08T22:05:13.796Z,54.45
2023-02-08T22:07:47.001Z,54.69
2023-02-08T22:10:18.476Z,54.74
2023-02-08T22:12:47.114Z,54.72
2023-02-08T22:15:17.174Z,54.79
2023-02-08T22:17:44.209Z,54.77
2023-02-08T22:20:12.411Z,54.48
2023-02-08T22:22:40.319Z,54.49
2023-02-08T22:25:07.556Z,54.82
2023-02-08T22:27:34.346Z,54.38
2023-02-08T22:30:01.190Z,54.72
2023-02-08T22:32:27.996Z,54.93
2023-02-08T22:34:54.855Z,54.96
2023-02-08T22:37:21.672Z,54.88
2023-02-08T22:39:48.547Z,55.11
2023-02-08T22:42:15.513Z,55.26
2023-02-08T22:44:44.572Z,55.06
2023-02-08T22:47:13.723Z,55.68
2023-02-08T22:49:40.967Z,55.73
2023-02-08T22:52:08.730Z,55.92
2023-02-08T22:54:35.947Z,56.30
2023-02-08T22:57:03.811Z,56.14
2023-02-08T22:59:30.754Z,56.26
2023-02-08T23:01:58.144Z,56.19
2023-02-08T23:04:25.537Z,56.23
2023-02-08T23:06:52.432Z,56.30
2023-02-08T23:09:19.477Z,56.30
2023-02-08T23:11:46.377Z,56.63
2023-02-08T23:14:13.186Z,56.58
2023-02-08T23:16:40.132Z,56.45
2023-02-08T23:19:06.982Z,56.88
2023-02-08T23:21:34.136Z,57.26
2023-02-08T23:24:01.034Z,57.10
2023-02-08T23:26:27.978Z,56.66
2023-02-08T23:28:54.801Z,56.69
2023-02-08T23:31:22.291Z,56.55
2023-02-08T23:33:49.863Z,57.08
2023-02-08T23:36:21.083Z,56.81
2023-02-08T23:38:48.633Z,56.30
2023-02-08T23:41:20.329Z,56.55
2023-02-08T23:43:48.683Z,56.76
2023-02-08T23:46:19.772Z,56.97
2023-02-08T23:48:47.753Z,57.16
2023-02-08T23:51:17.264Z,56.89
2023-02-08T23:53:44.674Z,56.54
2023-02-08T23:56:19.752Z,56.57
2023-02-08T23:58:49.904Z,56.99
